createdAt,value
2018-07-11T00:02:34.347Z,9.67
2018-07-11T00:08:36.269Z,9.30
2018-07-11T00:11:34.473Z,15.93
2018-07-11T00:14:51.521Z,13.13
2018-07-11T00:17:34.446Z,9.13
2018-07-11T00:20:51.482Z,14.77
2018-07-11T00:23:34.880Z,10.90
2018-07-11T00:26:51.913Z,9.00
2018-07-11T00:29:34.838Z,9.30
2018-07-11T00:32:35.577Z,13.50
2018-07-11T00:35:35.873Z,8.80
2018-07-11T00:38:36.045Z,8.63
2018-07-11T00:41:34.233Z,13.87
2018-07-11T00:46:45.003Z,11.67
2018-07-11T00:49:34.244Z,14.50
2018-07-11T00:52:51.095Z,9.53
2018-07-11T00:55:20.252Z,11.87
2018-07-11T03:00:55.246Z,14.10
2018-07-11T03:11:34.025Z,12.70
2018-07-11T04:14:33.380Z,34.50
2018-07-11T05:22:55.669Z,30.27
2018-07-11T05:25:37.482Z,27.57
2018-07-11T05:28:33.145Z,31.17
2018-07-11T05:37:03.056Z,24.63
2018-07-11T05:39:36.181Z,29.37
2018-07-11T05:42:34.771Z,34.00
2018-07-11T05:48:33.025Z,17.00
2018-07-11T06:11:57.304Z,15.60
2018-07-11T06:22:34.590Z,16.00
2018-07-11T06:28:33.122Z,15.80
2018-07-11T07:01:35.675Z,25.27
2018-07-11T07:04:33.631Z,16.33
2018-07-11T07:22:33.831Z,15.40
2018-07-11T07:56:34.822Z,14.90
2018-07-11T08:02:33.428Z,17.83
2018-07-11T09:17:50.952Z,14.43
2018-07-11T09:20:42.166Z,13.57
2018-07-11T09:23:36.310Z,15.23
2018-07-11T10:14:03.494Z,13.80
2018-07-11T10:19:37.372Z,12.80
2018-07-11T10:22:34.218Z,12.90
2018-07-11T10:28:33.620Z,13.60
2018-07-11T10:37:45.219Z,11.90
2018-07-11T10:40:34.302Z,12.83
2018-07-11T10:43:15.574Z,11.97
2018-07-11T10:45:44.857Z,12.20
2018-07-11T10:48:34.943Z,13.03
2018-07-11T10:57:03.775Z,11.33
2018-07-11T10:59:36.716Z,11.90
2018-07-11T11:02:35.228Z,13.07
2018-07-11T11:12:38.853Z,11.67
2018-07-11T11:15:34.000Z,11.97
2018-07-11T11:30:33.846Z,14.77
2018-07-11T11:42:34.111Z,15.03
2018-07-11T12:03:14.439Z,12.80
2018-07-11T12:05:43.669Z,15.47
2018-07-11T12:08:36.074Z,16.33
2018-07-11T12:11:34.057Z,13.93
2018-07-11T12:23:16.023Z,13.77
2018-07-11T12:26:55.236Z,11.40
2018-07-11T12:29:36.574Z,17.43
2018-07-11T12:32:35.432Z,12.77
2018-07-11T12:38:04.479Z,12.00
2018-07-11T12:40:37.742Z,16.50
2018-07-11T12:43:15.370Z,13.40
2018-07-11T12:51:59.265Z,16.57
2018-07-11T13:13:16.289Z,15.53
2018-07-11T13:15:51.552Z,14.77
2018-07-11T13:18:35.787Z,13.33
2018-07-11T13:21:34.484Z,12.17
2018-07-11T13:33:15.075Z,12.10
2018-07-11T13:35:44.346Z,11.40
2018-07-11T13:38:15.040Z,12.67
2018-07-11T13:40:44.383Z,15.33
2018-07-11T13:43:17.105Z,11.47
2018-07-11T13:45:46.393Z,12.17
2018-07-11T13:48:35.063Z,13.93
2018-07-11T13:51:33.678Z,11.13
2018-07-11T14:03:14.967Z,12.90
2018-07-11T14:05:44.595Z,14.60
2018-07-11T14:08:34.262Z,12.90
2018-07-11T14:23:20.193Z,12.07
2018-07-11T14:25:49.443Z,13.13
2018-07-11T14:28:37.070Z,15.93
2018-07-11T14:31:35.154Z,14.80
2018-07-11T14:37:14.079Z,14.83
2018-07-11T14:39:43.443Z,14.33
2018-07-11T14:42:35.903Z,15.40
2018-07-11T14:45:33.825Z,15.50
2018-07-11T14:48:51.131Z,13.43
2018-07-11T14:51:37.022Z,17.17
2018-07-11T14:54:35.229Z,15.83
2018-07-11T14:57:33.897Z,22.03
2018-07-11T15:03:15.929Z,19.80
2018-07-11T15:05:45.370Z,17.70
2018-07-11T15:08:14.744Z,20.60
2018-07-11T15:10:43.963Z,11.67
2018-07-11T15:13:16.829Z,14.90
2018-07-11T15:15:46.018Z,16.47
2018-07-11T15:18:34.802Z,13.27
2018-07-11T15:21:51.999Z,13.47
2018-07-11T15:24:35.755Z,17.20
2018-07-11T15:27:34.193Z,17.00
2018-07-11T15:32:54.472Z,13.00
2018-07-11T15:35:36.414Z,11.80
2018-07-11T15:38:34.959Z,12.60
2018-07-11T15:50:35.966Z,14.40
2018-07-11T15:53:15.165Z,16.90
2018-07-11T15:55:44.643Z,14.23
2018-07-11T15:58:36.382Z,12.87
2018-07-11T16:01:55.048Z,12.30
2018-07-11T16:04:39.733Z,13.60
2018-07-11T16:07:34.018Z,13.00
2018-07-11T16:13:19.631Z,12.70
2018-07-11T16:43:14.844Z,11.60
2018-07-11T17:13:11.977Z,11.87
2018-07-11T17:23:16.105Z,16.00
2018-07-11T17:53:14.738Z,11.93
2018-07-11T18:23:00.394Z,10.73
2018-07-11T18:41:43.775Z,13.73
2018-07-11T18:44:36.369Z,11.50
2018-07-11T18:47:34.351Z,14.23
2018-07-11T18:53:17.307Z,16.40
2018-07-11T19:07:46.316Z,14.77
2018-07-11T19:10:34.742Z,19.10
2018-07-11T19:19:34.482Z,12.53
2018-07-11T19:40:26.656Z,16.03
2018-07-11T19:43:14.622Z,11.77
2018-07-11T19:46:46.431Z,11.50
2018-07-11T19:49:35.257Z,12.23
2018-07-11T20:01:41.515Z,12.10
2018-07-11T20:07:43.524Z,11.50
2018-07-11T20:10:35.903Z,12.43
2018-07-11T20:13:05.503Z,11.73
2018-07-11T20:15:38.800Z,10.90
2018-07-11T20:18:35.162Z,15.00
2018-07-11T20:21:04.370Z,11.10
2018-07-11T20:23:37.707Z,11.87
2018-07-11T20:26:34.243Z,11.57
2018-07-11T20:29:03.504Z,12.17
2018-07-11T20:31:36.602Z,13.60
2018-07-11T20:34:34.951Z,12.37
2018-07-11T20:37:04.274Z,16.27
2018-07-11T20:39:37.038Z,12.43
2018-07-11T20:45:34.189Z,12.00
2018-07-11T20:51:03.059Z,10.83
2018-07-11T20:53:32.263Z,11.00
2018-07-11T20:56:01.439Z,13.37
2018-07-11T20:58:48.122Z,10.67
2018-07-11T21:01:35.252Z,12.40
2018-07-11T21:06:29.852Z,11.00
2018-07-11T21:09:19.454Z,13.43
2018-07-11T21:16:19.562Z,15.60
2018-07-11T21:21:48.548Z,18.97
2018-07-11T21:24:17.794Z,15.03
2018-07-11T21:26:46.980Z,13.83
2018-07-11T21:29:16.262Z,19.33
2018-07-11T21:31:45.473Z,19.27
2018-07-11T21:34:14.665Z,14.20
2018-07-11T21:36:43.856Z,26.40
2018-07-11T21:39:13.393Z,20.70
2018-07-11T21:41:42.582Z,19.80
2018-07-11T21:44:11.837Z,26.33
2018-07-11T21:46:41.234Z,13.97
2018-07-11T21:49:10.413Z,19.83
2018-07-11T21:51:39.613Z,20.50
2018-07-11T21:54:08.820Z,22.20
2018-07-11T21:56:38.069Z,12.10
2018-07-11T21:59:07.276Z,18.50
2018-07-11T22:01:37.374Z,17.30
2018-07-11T22:04:06.670Z,22.07
2018-07-11T22:06:35.966Z,20.07
2018-07-11T22:09:05.362Z,15.07
2018-07-11T22:11:34.542Z,15.97
2018-07-11T22:18:19.842Z,13.00
2018-07-11T22:20:47.505Z,12.73
2018-07-11T22:23:15.189Z,11.10
2018-07-11T22:25:42.986Z,12.47
2018-07-11T22:28:34.948Z,12.90
2018-07-11T22:31:02.698Z,12.47
2018-07-11T22:33:30.378Z,12.07
2018-07-11T22:35:58.043Z,11.43
2018-07-11T22:38:25.752Z,10.90
2018-07-11T22:40:53.654Z,11.10
2018-07-11T22:43:21.331Z,11.73
2018-07-11T22:45:49.046Z,13.33
2018-07-11T22:48:16.713Z,13.00
2018-07-11T22:50:44.372Z,11.00
2018-07-11T22:53:12.079Z,11.23
2018-07-11T22:55:39.765Z,12.70
2018-07-11T22:58:07.445Z,11.40
2018-07-11T23:00:35.136Z,10.80
2018-07-11T23:03:02.801Z,13.03
2018-07-11T23:05:30.478Z,11.80
2018-07-11T23:07:58.177Z,10.73
2018-07-11T23:10:36.178Z,12.30
2018-07-11T23:13:03.885Z,12.90
2018-07-11T23:15:31.570Z,12.77
2018-07-11T23:17:59.265Z,10.73
2018-07-11T23:20:26.963Z,10.73
2018-07-11T23:22:54.637Z,10.43
2018-07-11T23:25:22.331Z,13.00
2018-07-11T23:27:50.035Z,13.33
2018-07-11T23:30:17.725Z,12.27
2018-07-11T23:32:45.405Z,9.97
2018-07-11T23:35:13.149Z,12.70
2018-07-11T23:37:40.838Z,12.20
2018-07-11T23:40:08.518Z,11.57
2018-07-11T23:42:36.461Z,12.93
2018-07-11T23:45:04.129Z,11.30
2018-07-11T23:47:31.793Z,11.97
2018-07-11T23:49:59.504Z,10.93
2018-07-11T23:52:35.705Z,11.40
2018-07-11T23:55:03.403Z,11.70
2018-07-11T23:57:31.081Z,12.20
2018-07-11T23:59:58.742Z,11.03
